sensor_id;sensor_type;location;lat;lon;timestamp;P1;durP1;ratioP1;P2;durP2;ratioP2
70183;SDS011;57554;51.546;6.776;2023-05-06T00:01:02;10.73;;;5.65;;
70183;SDS011;57554;51.546;6.776;2023-05-06T00:17:25;12.77;;;6.55;;
70183;SDS011;57554;51.546;6.776;2023-05-06T00:23:53;10.40;;;6.30;;
70183;SDS011;57554;51.546;6.776;2023-05-06T00:26:22;13.02;;;7.20;;
70183;SDS011;57554;51.546;6.776;2023-05-06T00:28:47;12.90;;;7.90;;
70183;SDS011;57554;51.546;6.776;2023-05-06T00:31:13;12.25;;;7.13;;
70183;SDS011;57554;51.546;6.776;2023-05-06T00:37:22;15.15;;;8.15;;
70183;SDS011;57554;51.546;6.776;2023-05-06T00:46:33;12.43;;;6.78;;
70183;SDS011;57554;51.546;6.776;2023-05-06T00:49:08;14.38;;;7.78;;
70183;SDS011;57554;51.546;6.776;2023-05-06T00:51:39;12.93;;;7.25;;
70183;SDS011;57554;51.546;6.776;2023-05-06T00:58:11;13.88;;;7.80;;
70183;SDS011;57554;51.546;6.776;2023-05-06T01:00:43;16.27;;;8.02;;
70183;SDS011;57554;51.546;6.776;2023-05-06T01:16:18;18.13;;;9.55;;
70183;SDS011;57554;51.546;6.776;2023-05-06T01:22:17;17.55;;;9.65;;
70183;SDS011;57554;51.546;6.776;2023-05-06T01:28:07;15.90;;;7.53;;
70183;SDS011;57554;51.546;6.776;2023-05-06T01:42:05;15.75;;;7.78;;
70183;SDS011;57554;51.546;6.776;2023-05-06T01:56:11;14.05;;;7.03;;
70183;SDS011;57554;51.546;6.776;2023-05-06T01:58:47;15.52;;;6.95;;
70183;SDS011;57554;51.546;6.776;2023-05-06T02:01:27;15.32;;;7.63;;
70183;SDS011;57554;51.546;6.776;2023-05-06T02:03:58;15.90;;;7.47;;
70183;SDS011;57554;51.546;6.776;2023-05-06T02:06:32;17.38;;;8.35;;
70183;SDS011;57554;51.546;6.776;2023-05-06T02:15:35;17.83;;;7.40;;
70183;SDS011;57554;51.546;6.776;2023-05-06T02:18:03;18.80;;;9.88;;
70183;SDS011;57554;51.546;6.776;2023-05-06T02:20:54;17.65;;;8.90;;
70183;SDS011;57554;51.546;6.776;2023-05-06T02:23:28;21.40;;;10.40;;
70183;SDS011;57554;51.546;6.776;2023-05-06T02:25:56;15.60;;;8.35;;
70183;SDS011;57554;51.546;6.776;2023-05-06T02:28:23;14.60;;;7.32;;
70183;SDS011;57554;51.546;6.776;2023-05-06T02:30:55;15.18;;;7.45;;
70183;SDS011;57554;51.546;6.776;2023-05-06T02:33:27;15.18;;;8.20;;
70183;SDS011;57554;51.546;6.776;2023-05-06T02:40:00;19.30;;;9.45;;
70183;SDS011;57554;51.546;6.776;2023-05-06T02:42:41;27.80;;;12.77;;
70183;SDS011;57554;51.546;6.776;2023-05-06T02:45:15;25.38;;;12.45;;
70183;SDS011;57554;51.546;6.776;2023-05-06T02:51:22;31.38;;;14.70;;
70183;SDS011;57554;51.546;6.776;2023-05-06T03:01:17;20.77;;;9.80;;
70183;SDS011;57554;51.546;6.776;2023-05-06T03:07:18;23.60;;;9.38;;
70183;SDS011;57554;51.546;6.776;2023-05-06T03:13:08;22.48;;;10.40;;
70183;SDS011;57554;51.546;6.776;2023-05-06T03:19:14;23.23;;;11.88;;
70183;SDS011;57554;51.546;6.776;2023-05-06T03:21:48;22.70;;;11.25;;
70183;SDS011;57554;51.546;6.776;2023-05-06T03:24:23;18.65;;;9.13;;
70183;SDS011;57554;51.546;6.776;2023-05-06T03:26:49;20.15;;;9.55;;
70183;SDS011;57554;51.546;6.776;2023-05-06T03:32:26;46.10;;;19.35;;
70183;SDS011;57554;51.546;6.776;2023-05-06T03:38:21;53.58;;;21.38;;
70183;SDS011;57554;51.546;6.776;2023-05-06T03:40:47;58.88;;;23.33;;
70183;SDS011;57554;51.546;6.776;2023-05-06T03:46:39;70.63;;;24.80;;
70183;SDS011;57554;51.546;6.776;2023-05-06T03:52:32;74.07;;;25.65;;
70183;SDS011;57554;51.546;6.776;2023-05-06T03:55:00;64.55;;;24.98;;
70183;SDS011;57554;51.546;6.776;2023-05-06T04:01:36;69.90;;;26.58;;
70183;SDS011;57554;51.546;6.776;2023-05-06T04:04:20;67.57;;;26.85;;
70183;SDS011;57554;51.546;6.776;2023-05-06T04:06:53;69.90;;;25.73;;
70183;SDS011;57554;51.546;6.776;2023-05-06T04:12:47;61.97;;;23.75;;
70183;SDS011;57554;51.546;6.776;2023-05-06T04:15:12;72.95;;;26.98;;
70183;SDS011;57554;51.546;6.776;2023-05-06T04:21:00;64.60;;;24.42;;
70183;SDS011;57554;51.546;6.776;2023-05-06T04:23:29;71.65;;;28.27;;
70183;SDS011;57554;51.546;6.776;2023-05-06T04:29:57;66.10;;;25.13;;
70183;SDS011;57554;51.546;6.776;2023-05-06T04:32:29;59.60;;;24.05;;
70183;SDS011;57554;51.546;6.776;2023-05-06T04:34:54;55.25;;;23.85;;
70183;SDS011;57554;51.546;6.776;2023-05-06T04:41:05;67.20;;;25.58;;
70183;SDS011;57554;51.546;6.776;2023-05-06T04:52:50;63.17;;;26.13;;
70183;SDS011;57554;51.546;6.776;2023-05-06T04:55:16;63.83;;;25.85;;
70183;SDS011;57554;51.546;6.776;2023-05-06T05:04:14;60.72;;;24.27;;
70183;SDS011;57554;51.546;6.776;2023-05-06T05:10:06;69.28;;;27.50;;
70183;SDS011;57554;51.546;6.776;2023-05-06T05:12:35;63.58;;;24.90;;
70183;SDS011;57554;51.546;6.776;2023-05-06T05:17:52;76.55;;;29.27;;
70183;SDS011;57554;51.546;6.776;2023-05-06T05:20:18;66.03;;;27.60;;
70183;SDS011;57554;51.546;6.776;2023-05-06T05:22:44;62.35;;;26.80;;
70183;SDS011;57554;51.546;6.776;2023-05-06T05:25:10;74.78;;;29.30;;
70183;SDS011;57554;51.546;6.776;2023-05-06T05:27:39;64.70;;;26.65;;
70183;SDS011;57554;51.546;6.776;2023-05-06T05:30:06;66.20;;;26.98;;
70183;SDS011;57554;51.546;6.776;2023-05-06T05:32:32;68.35;;;28.75;;
70183;SDS011;57554;51.546;6.776;2023-05-06T05:34:58;62.90;;;27.17;;
70183;SDS011;57554;51.546;6.776;2023-05-06T05:37:24;60.95;;;27.52;;
70183;SDS011;57554;51.546;6.776;2023-05-06T05:39:49;61.25;;;26.50;;
70183;SDS011;57554;51.546;6.776;2023-05-06T05:42:18;55.88;;;26.65;;
70183;SDS011;57554;51.546;6.776;2023-05-06T05:44:44;60.63;;;27.33;;
70183;SDS011;57554;51.546;6.776;2023-05-06T05:47:13;60.42;;;26.55;;
70183;SDS011;57554;51.546;6.776;2023-05-06T05:49:39;59.05;;;26.20;;
70183;SDS011;57554;51.546;6.776;2023-05-06T05:52:08;54.28;;;25.02;;
70183;SDS011;57554;51.546;6.776;2023-05-06T05:54:34;57.58;;;26.35;;
70183;SDS011;57554;51.546;6.776;2023-05-06T05:57:03;59.65;;;27.35;;
70183;SDS011;57554;51.546;6.776;2023-05-06T05:59:28;55.25;;;26.67;;
70183;SDS011;57554;51.546;6.776;2023-05-06T06:01:59;59.65;;;28.20;;
70183;SDS011;57554;51.546;6.776;2023-05-06T06:04:30;52.47;;;24.65;;
70183;SDS011;57554;51.546;6.776;2023-05-06T06:06:56;55.20;;;26.48;;
70183;SDS011;57554;51.546;6.776;2023-05-06T06:09:28;50.45;;;25.25;;
70183;SDS011;57554;51.546;6.776;2023-05-06T06:11:56;48.78;;;24.73;;
70183;SDS011;57554;51.546;6.776;2023-05-06T06:14:24;50.35;;;24.73;;
70183;SDS011;57554;51.546;6.776;2023-05-06T06:16:53;52.35;;;25.73;;
70183;SDS011;57554;51.546;6.776;2023-05-06T06:19:19;51.83;;;24.40;;
70183;SDS011;57554;51.546;6.776;2023-05-06T06:21:44;52.45;;;25.35;;
70183;SDS011;57554;51.546;6.776;2023-05-06T06:24:11;49.03;;;25.23;;
70183;SDS011;57554;51.546;6.776;2023-05-06T06:26:36;44.05;;;23.75;;
70183;SDS011;57554;51.546;6.776;2023-05-06T06:29:02;44.53;;;23.00;;
70183;SDS011;57554;51.546;6.776;2023-05-06T06:31:30;48.03;;;25.15;;
70183;SDS011;57554;51.546;6.776;2023-05-06T06:33:58;44.33;;;23.27;;
70183;SDS011;57554;51.546;6.776;2023-05-06T06:36:24;46.53;;;24.33;;
70183;SDS011;57554;51.546;6.776;2023-05-06T06:38:50;47.00;;;24.52;;
70183;SDS011;57554;51.546;6.776;2023-05-06T06:41:15;44.13;;;23.88;;
70183;SDS011;57554;51.546;6.776;2023-05-06T06:43:41;46.85;;;23.67;;
70183;SDS011;57554;51.546;6.776;2023-05-06T06:46:07;45.97;;;23.25;;
70183;SDS011;57554;51.546;6.776;2023-05-06T06:48:33;44.72;;;23.30;;
70183;SDS011;57554;51.546;6.776;2023-05-06T06:50:59;42.58;;;21.23;;
70183;SDS011;57554;51.546;6.776;2023-05-06T06:53:24;44.40;;;22.27;;
70183;SDS011;57554;51.546;6.776;2023-05-06T06:55:50;39.58;;;21.63;;
70183;SDS011;57554;51.546;6.776;2023-05-06T06:58:16;41.03;;;22.65;;
70183;SDS011;57554;51.546;6.776;2023-05-06T07:00:42;42.95;;;21.92;;
70183;SDS011;57554;51.546;6.776;2023-05-06T07:03:10;37.30;;;18.55;;
70183;SDS011;57554;51.546;6.776;2023-05-06T07:05:45;37.95;;;20.30;;
70183;SDS011;57554;51.546;6.776;2023-05-06T07:08:15;39.63;;;20.58;;
70183;SDS011;57554;51.546;6.776;2023-05-06T07:10:41;39.03;;;20.05;;
70183;SDS011;57554;51.546;6.776;2023-05-06T07:13:06;39.22;;;21.50;;
70183;SDS011;57554;51.546;6.776;2023-05-06T07:15:32;40.30;;;21.40;;
70183;SDS011;57554;51.546;6.776;2023-05-06T07:17:58;39.72;;;20.50;;
70183;SDS011;57554;51.546;6.776;2023-05-06T07:20:26;42.65;;;20.80;;
70183;SDS011;57554;51.546;6.776;2023-05-06T07:22:52;39.97;;;19.50;;
70183;SDS011;57554;51.546;6.776;2023-05-06T07:25:18;38.30;;;21.38;;
70183;SDS011;57554;51.546;6.776;2023-05-06T07:27:48;37.20;;;20.17;;
70183;SDS011;57554;51.546;6.776;2023-05-06T07:30:16;39.05;;;19.15;;
70183;SDS011;57554;51.546;6.776;2023-05-06T07:32:43;36.00;;;19.17;;
70183;SDS011;57554;51.546;6.776;2023-05-06T07:35:13;29.95;;;17.08;;
70183;SDS011;57554;51.546;6.776;2023-05-06T07:37:41;31.73;;;16.40;;
70183;SDS011;57554;51.546;6.776;2023-05-06T07:40:12;32.17;;;15.45;;
70183;SDS011;57554;51.546;6.776;2023-05-06T07:42:39;28.40;;;14.60;;
70183;SDS011;57554;51.546;6.776;2023-05-06T07:45:05;22.67;;;11.85;;
70183;SDS011;57554;51.546;6.776;2023-05-06T07:47:31;20.25;;;11.23;;
70183;SDS011;57554;51.546;6.776;2023-05-06T07:49:58;25.88;;;11.95;;
70183;SDS011;57554;51.546;6.776;2023-05-06T07:52:26;20.00;;;11.07;;
70183;SDS011;57554;51.546;6.776;2023-05-06T07:54:51;22.65;;;11.25;;
70183;SDS011;57554;51.546;6.776;2023-05-06T07:57:19;21.70;;;11.32;;
70183;SDS011;57554;51.546;6.776;2023-05-06T07:59:46;19.35;;;11.48;;
70183;SDS011;57554;51.546;6.776;2023-05-06T08:02:19;20.77;;;10.70;;
70183;SDS011;57554;51.546;6.776;2023-05-06T08:04:50;20.98;;;11.05;;
70183;SDS011;57554;51.546;6.776;2023-05-06T08:07:16;21.88;;;10.32;;
70183;SDS011;57554;51.546;6.776;2023-05-06T08:09:41;19.92;;;10.02;;
70183;SDS011;57554;51.546;6.776;2023-05-06T08:12:07;23.55;;;10.98;;
70183;SDS011;57554;51.546;6.776;2023-05-06T08:14:39;19.10;;;10.30;;
70183;SDS011;57554;51.546;6.776;2023-05-06T08:17:07;21.52;;;11.50;;
70183;SDS011;57554;51.546;6.776;2023-05-06T08:19:43;18.63;;;10.35;;
70183;SDS011;57554;51.546;6.776;2023-05-06T08:22:22;21.27;;;10.45;;
70183;SDS011;57554;51.546;6.776;2023-05-06T08:24:53;18.55;;;9.13;;
70183;SDS011;57554;51.546;6.776;2023-05-06T08:27:22;17.17;;;9.45;;
70183;SDS011;57554;51.546;6.776;2023-05-06T08:29:47;17.10;;;8.95;;
70183;SDS011;57554;51.546;6.776;2023-05-06T08:32:13;13.00;;;6.57;;
70183;SDS011;57554;51.546;6.776;2023-05-06T08:34:56;16.02;;;7.47;;
70183;SDS011;57554;51.546;6.776;2023-05-06T08:37:23;16.20;;;8.48;;
70183;SDS011;57554;51.546;6.776;2023-05-06T08:39:52;15.05;;;8.38;;
70183;SDS011;57554;51.546;6.776;2023-05-06T08:42:18;17.15;;;8.38;;
70183;SDS011;57554;51.546;6.776;2023-05-06T08:44:52;16.60;;;8.68;;
70183;SDS011;57554;51.546;6.776;2023-05-06T08:47:20;17.88;;;9.02;;
70183;SDS011;57554;51.546;6.776;2023-05-06T08:49:47;17.13;;;9.63;;
70183;SDS011;57554;51.546;6.776;2023-05-06T08:52:13;18.10;;;9.50;;
70183;SDS011;57554;51.546;6.776;2023-05-06T08:54:39;18.50;;;8.73;;
70183;SDS011;57554;51.546;6.776;2023-05-06T08:57:10;17.65;;;8.70;;
70183;SDS011;57554;51.546;6.776;2023-05-06T08:59:37;15.43;;;8.55;;
70183;SDS011;57554;51.546;6.776;2023-05-06T09:02:08;19.65;;;8.50;;
70183;SDS011;57554;51.546;6.776;2023-05-06T09:04:38;20.52;;;9.05;;
70183;SDS011;57554;51.546;6.776;2023-05-06T09:07:08;15.20;;;9.20;;
70183;SDS011;57554;51.546;6.776;2023-05-06T09:09:34;16.10;;;8.93;;
70183;SDS011;57554;51.546;6.776;2023-05-06T09:12:03;16.67;;;8.82;;
70183;SDS011;57554;51.546;6.776;2023-05-06T09:14:33;15.10;;;8.77;;
70183;SDS011;57554;51.546;6.776;2023-05-06T09:16:59;13.77;;;7.75;;
70183;SDS011;57554;51.546;6.776;2023-05-06T09:19:27;12.63;;;6.03;;
70183;SDS011;57554;51.546;6.776;2023-05-06T09:21:55;9.38;;;5.18;;
70183;SDS011;57554;51.546;6.776;2023-05-06T09:24:22;11.02;;;5.72;;
70183;SDS011;57554;51.546;6.776;2023-05-06T09:26:49;13.63;;;6.13;;
70183;SDS011;57554;51.546;6.776;2023-05-06T09:29:19;12.13;;;6.50;;
70183;SDS011;57554;51.546;6.776;2023-05-06T09:31:47;11.23;;;5.20;;
70183;SDS011;57554;51.546;6.776;2023-05-06T09:34:13;13.80;;;5.93;;
70183;SDS011;57554;51.546;6.776;2023-05-06T09:36:42;13.50;;;5.82;;
70183;SDS011;57554;51.546;6.776;2023-05-06T09:39:11;8.65;;;4.75;;
70183;SDS011;57554;51.546;6.776;2023-05-06T09:41:36;10.88;;;5.30;;
70183;SDS011;57554;51.546;6.776;2023-05-06T09:44:10;11.50;;;5.80;;
70183;SDS011;57554;51.546;6.776;2023-05-06T09:46:48;11.35;;;5.72;;
70183;SDS011;57554;51.546;6.776;2023-05-06T09:49:14;11.40;;;5.32;;
70183;SDS011;57554;51.546;6.776;2023-05-06T09:51:44;11.25;;;4.78;;
70183;SDS011;57554;51.546;6.776;2023-05-06T09:54:18;9.10;;;3.97;;
70183;SDS011;57554;51.546;6.776;2023-05-06T09:56:45;7.80;;;4.10;;
70183;SDS011;57554;51.546;6.776;2023-05-06T09:59:12;11.73;;;4.85;;
70183;SDS011;57554;51.546;6.776;2023-05-06T10:01:42;9.02;;;4.60;;
70183;SDS011;57554;51.546;6.776;2023-05-06T10:04:08;8.55;;;4.45;;
70183;SDS011;57554;51.546;6.776;2023-05-06T10:06:39;8.05;;;4.70;;
70183;SDS011;57554;51.546;6.776;2023-05-06T10:09:08;9.80;;;4.07;;
70183;SDS011;57554;51.546;6.776;2023-05-06T10:11:35;9.63;;;4.65;;
70183;SDS011;57554;51.546;6.776;2023-05-06T10:14:18;9.07;;;4.63;;
70183;SDS011;57554;51.546;6.776;2023-05-06T10:17:17;9.25;;;5.00;;
70183;SDS011;57554;51.546;6.776;2023-05-06T10:19:51;8.93;;;4.50;;
70183;SDS011;57554;51.546;6.776;2023-05-06T10:25:43;7.63;;;3.90;;
70183;SDS011;57554;51.546;6.776;2023-05-06T10:28:11;7.05;;;3.70;;
70183;SDS011;57554;51.546;6.776;2023-05-06T10:30:38;9.27;;;4.22;;
70183;SDS011;57554;51.546;6.776;2023-05-06T10:33:06;9.93;;;4.72;;
70183;SDS011;57554;51.546;6.776;2023-05-06T10:38:02;8.85;;;4.43;;
70183;SDS011;57554;51.546;6.776;2023-05-06T10:43:39;9.18;;;4.28;;
70183;SDS011;57554;51.546;6.776;2023-05-06T10:46:13;9.20;;;3.67;;
70183;SDS011;57554;51.546;6.776;2023-05-06T10:52:17;10.38;;;4.20;;
70183;SDS011;57554;51.546;6.776;2023-05-06T10:54:49;8.65;;;3.90;;
70183;SDS011;57554;51.546;6.776;2023-05-06T10:57:18;10.75;;;4.93;;
70183;SDS011;57554;51.546;6.776;2023-05-06T10:59:50;11.70;;;6.00;;
70183;SDS011;57554;51.546;6.776;2023-05-06T11:02:19;11.38;;;5.50;;
70183;SDS011;57554;51.546;6.776;2023-05-06T11:04:49;11.60;;;5.47;;
70183;SDS011;57554;51.546;6.776;2023-05-06T11:07:24;10.73;;;5.65;;
70183;SDS011;57554;51.546;6.776;2023-05-06T11:12:28;9.68;;;5.57;;
70183;SDS011;57554;51.546;6.776;2023-05-06T11:15:21;10.02;;;5.95;;
70183;SDS011;57554;51.546;6.776;2023-05-06T11:27:01;9.77;;;5.18;;
70183;SDS011;57554;51.546;6.776;2023-05-06T11:32:51;7.95;;;4.43;;
70183;SDS011;57554;51.546;6.776;2023-05-06T11:38:12;14.52;;;4.35;;
70183;SDS011;57554;51.546;6.776;2023-05-06T11:40:51;6.70;;;3.45;;
70183;SDS011;57554;51.546;6.776;2023-05-06T11:44:01;9.23;;;3.22;;
70183;SDS011;57554;51.546;6.776;2023-05-06T11:46:34;8.70;;;3.50;;
70183;SDS011;57554;51.546;6.776;2023-05-06T11:49:03;7.78;;;3.25;;
70183;SDS011;57554;51.546;6.776;2023-05-06T11:55:09;7.63;;;2.80;;
70183;SDS011;57554;51.546;6.776;2023-05-06T11:57:40;9.95;;;3.00;;
70183;SDS011;57554;51.546;6.776;2023-05-06T12:00:13;7.70;;;2.95;;
70183;SDS011;57554;51.546;6.776;2023-05-06T12:06:01;7.03;;;2.83;;
70183;SDS011;57554;51.546;6.776;2023-05-06T12:08:36;6.07;;;2.45;;
70183;SDS011;57554;51.546;6.776;2023-05-06T12:11:03;7.97;;;2.70;;
70183;SDS011;57554;51.546;6.776;2023-05-06T12:13:38;6.63;;;2.42;;
70183;SDS011;57554;51.546;6.776;2023-05-06T12:16:18;7.07;;;2.80;;
70183;SDS011;57554;51.546;6.776;2023-05-06T12:18:48;7.47;;;2.58;;
70183;SDS011;57554;51.546;6.776;2023-05-06T12:21:20;6.40;;;2.28;;
70183;SDS011;57554;51.546;6.776;2023-05-06T12:23:54;7.20;;;2.67;;
70183;SDS011;57554;51.546;6.776;2023-05-06T12:33:27;6.68;;;2.00;;
70183;SDS011;57554;51.546;6.776;2023-05-06T12:36:19;5.95;;;2.33;;
70183;SDS011;57554;51.546;6.776;2023-05-06T12:39:18;5.30;;;1.88;;
70183;SDS011;57554;51.546;6.776;2023-05-06T12:41:46;5.07;;;1.95;;
70183;SDS011;57554;51.546;6.776;2023-05-06T12:47:34;6.50;;;2.13;;
70183;SDS011;57554;51.546;6.776;2023-05-06T12:50:42;6.40;;;1.80;;
70183;SDS011;57554;51.546;6.776;2023-05-06T12:57:41;5.13;;;1.95;;
70183;SDS011;57554;51.546;6.776;2023-05-06T13:00:29;4.88;;;1.80;;
70183;SDS011;57554;51.546;6.776;2023-05-06T13:03:17;6.30;;;2.03;;
70183;SDS011;57554;51.546;6.776;2023-05-06T13:05:43;6.63;;;2.30;;
70183;SDS011;57554;51.546;6.776;2023-05-06T13:08:32;7.30;;;2.17;;
70183;SDS011;57554;51.546;6.776;2023-05-06T13:10:58;6.72;;;2.30;;
70183;SDS011;57554;51.546;6.776;2023-05-06T13:13:50;8.43;;;2.58;;
70183;SDS011;57554;51.546;6.776;2023-05-06T13:16:29;9.95;;;2.33;;
70183;SDS011;57554;51.546;6.776;2023-05-06T13:18:56;23.00;;;6.93;;
70183;SDS011;57554;51.546;6.776;2023-05-06T13:31:43;8.30;;;2.42;;
70183;SDS011;57554;51.546;6.776;2023-05-06T13:34:12;6.72;;;2.50;;
70183;SDS011;57554;51.546;6.776;2023-05-06T13:36:38;5.60;;;2.28;;
70183;SDS011;57554;51.546;6.776;2023-05-06T13:42:32;5.88;;;2.25;;
70183;SDS011;57554;51.546;6.776;2023-05-06T13:48:25;6.57;;;2.25;;
70183;SDS011;57554;51.546;6.776;2023-05-06T13:54:31;7.03;;;2.22;;
70183;SDS011;57554;51.546;6.776;2023-05-06T13:56:58;5.95;;;2.47;;
70183;SDS011;57554;51.546;6.776;2023-05-06T14:00:03;9.07;;;2.50;;
70183;SDS011;57554;51.546;6.776;2023-05-06T14:02:34;6.65;;;2.33;;
70183;SDS011;57554;51.546;6.776;2023-05-06T14:05:03;6.13;;;3.03;;
70183;SDS011;57554;51.546;6.776;2023-05-06T14:07:38;6.65;;;2.50;;
70183;SDS011;57554;51.546;6.776;2023-05-06T14:19:12;7.93;;;2.80;;
70183;SDS011;57554;51.546;6.776;2023-05-06T14:22:01;7.80;;;2.60;;
70183;SDS011;57554;51.546;6.776;2023-05-06T14:24:32;8.38;;;3.00;;
70183;SDS011;57554;51.546;6.776;2023-05-06T14:27:18;6.38;;;2.35;;
70183;SDS011;57554;51.546;6.776;2023-05-06T14:29:50;7.85;;;2.55;;
70183;SDS011;57554;51.546;6.776;2023-05-06T14:32:18;9.70;;;2.60;;
70183;SDS011;57554;51.546;6.776;2023-05-06T14:34:55;8.27;;;3.22;;
70183;SDS011;57554;51.546;6.776;2023-05-06T14:37:59;5.93;;;2.58;;
70183;SDS011;57554;51.546;6.776;2023-05-06T14:41:02;6.75;;;2.80;;
70183;SDS011;57554;51.546;6.776;2023-05-06T14:43:43;9.90;;;3.45;;
70183;SDS011;57554;51.546;6.776;2023-05-06T14:46:09;6.72;;;2.80;;
70183;SDS011;57554;51.546;6.776;2023-05-06T14:48:48;8.05;;;3.00;;
70183;SDS011;57554;51.546;6.776;2023-05-06T14:57:59;7.00;;;2.90;;
70183;SDS011;57554;51.546;6.776;2023-05-06T15:07:25;5.60;;;2.45;;
70183;SDS011;57554;51.546;6.776;2023-05-06T15:13:13;6.55;;;2.63;;
70183;SDS011;57554;51.546;6.776;2023-05-06T15:18:52;6.88;;;2.40;;
70183;SDS011;57554;51.546;6.776;2023-05-06T15:24:03;8.02;;;2.33;;
70183;SDS011;57554;51.546;6.776;2023-05-06T15:26:29;6.40;;;1.95;;
70183;SDS011;57554;51.546;6.776;2023-05-06T15:35:53;4.60;;;2.08;;
70183;SDS011;57554;51.546;6.776;2023-05-06T15:44:22;7.05;;;2.50;;
70183;SDS011;57554;51.546;6.776;2023-05-06T15:53:39;9.23;;;2.20;;
70183;SDS011;57554;51.546;6.776;2023-05-06T15:59:32;10.82;;;3.25;;
70183;SDS011;57554;51.546;6.776;2023-05-06T16:02:06;11.85;;;3.40;;
70183;SDS011;57554;51.546;6.776;2023-05-06T16:08:03;8.95;;;3.58;;
70183;SDS011;57554;51.546;6.776;2023-05-06T16:10:34;7.75;;;2.90;;
70183;SDS011;57554;51.546;6.776;2023-05-06T16:13:28;7.65;;;1.98;;
70183;SDS011;57554;51.546;6.776;2023-05-06T16:16:06;6.78;;;2.67;;
70183;SDS011;57554;51.546;6.776;2023-05-06T16:18:43;5.63;;;2.20;;
70183;SDS011;57554;51.546;6.776;2023-05-06T16:21:36;6.70;;;2.30;;
70183;SDS011;57554;51.546;6.776;2023-05-06T16:24:04;5.63;;;1.98;;
70183;SDS011;57554;51.546;6.776;2023-05-06T16:26:30;6.63;;;2.08;;
70183;SDS011;57554;51.546;6.776;2023-05-06T16:28:59;4.30;;;1.30;;
70183;SDS011;57554;51.546;6.776;2023-05-06T16:31:44;4.82;;;1.70;;
70183;SDS011;57554;51.546;6.776;2023-05-06T16:34:11;5.13;;;1.60;;
70183;SDS011;57554;51.546;6.776;2023-05-06T16:36:44;6.05;;;1.85;;
70183;SDS011;57554;51.546;6.776;2023-05-06T16:39:12;6.78;;;2.20;;
70183;SDS011;57554;51.546;6.776;2023-05-06T16:45:41;8.00;;;2.47;;
70183;SDS011;57554;51.546;6.776;2023-05-06T16:48:09;6.82;;;3.00;;
70183;SDS011;57554;51.546;6.776;2023-05-06T16:50:36;8.27;;;3.08;;
70183;SDS011;57554;51.546;6.776;2023-05-06T16:53:03;8.00;;;3.70;;
70183;SDS011;57554;51.546;6.776;2023-05-06T16:55:31;7.38;;;3.25;;
70183;SDS011;57554;51.546;6.776;2023-05-06T16:58:01;8.82;;;4.30;;
70183;SDS011;57554;51.546;6.776;2023-05-06T17:00:48;8.27;;;3.60;;
70183;SDS011;57554;51.546;6.776;2023-05-06T17:03:25;8.50;;;3.45;;
70183;SDS011;57554;51.546;6.776;2023-05-06T17:05:53;9.20;;;3.38;;
70183;SDS011;57554;51.546;6.776;2023-05-06T17:08:19;7.38;;;3.67;;
70183;SDS011;57554;51.546;6.776;2023-05-06T17:10:53;11.68;;;4.20;;
70183;SDS011;57554;51.546;6.776;2023-05-06T17:13:23;9.93;;;3.80;;
70183;SDS011;57554;51.546;6.776;2023-05-06T17:16:07;8.13;;;4.03;;
70183;SDS011;57554;51.546;6.776;2023-05-06T17:18:38;8.18;;;3.40;;
70183;SDS011;57554;51.546;6.776;2023-05-06T17:21:15;9.80;;;3.50;;
70183;SDS011;57554;51.546;6.776;2023-05-06T17:23:56;9.18;;;3.25;;
70183;SDS011;57554;51.546;6.776;2023-05-06T17:26:23;8.45;;;3.22;;
70183;SDS011;57554;51.546;6.776;2023-05-06T17:28:51;9.85;;;3.40;;
70183;SDS011;57554;51.546;6.776;2023-05-06T17:31:20;7.55;;;3.25;;
70183;SDS011;57554;51.546;6.776;2023-05-06T17:33:48;9.10;;;3.40;;
70183;SDS011;57554;51.546;6.776;2023-05-06T17:36:24;9.55;;;3.45;;
70183;SDS011;57554;51.546;6.776;2023-05-06T17:39:00;9.90;;;4.03;;
70183;SDS011;57554;51.546;6.776;2023-05-06T17:41:53;12.30;;;4.72;;
70183;SDS011;57554;51.546;6.776;2023-05-06T17:44:53;14.75;;;4.55;;
70183;SDS011;57554;51.546;6.776;2023-05-06T17:47:21;10.57;;;4.40;;
70183;SDS011;57554;51.546;6.776;2023-05-06T17:49:53;8.73;;;3.88;;
70183;SDS011;57554;51.546;6.776;2023-05-06T17:52:29;11.30;;;4.30;;
70183;SDS011;57554;51.546;6.776;2023-05-06T17:54:58;12.55;;;4.50;;
70183;SDS011;57554;51.546;6.776;2023-05-06T17:57:24;9.82;;;4.70;;
70183;SDS011;57554;51.546;6.776;2023-05-06T18:00:00;9.32;;;3.85;;
70183;SDS011;57554;51.546;6.776;2023-05-06T18:02:26;11.75;;;4.15;;
70183;SDS011;57554;51.546;6.776;2023-05-06T18:04:55;8.60;;;3.83;;
70183;SDS011;57554;51.546;6.776;2023-05-06T18:07:20;10.80;;;3.58;;
70183;SDS011;57554;51.546;6.776;2023-05-06T18:09:46;7.13;;;3.20;;
70183;SDS011;57554;51.546;6.776;2023-05-06T18:12:19;10.07;;;3.47;;
70183;SDS011;57554;51.546;6.776;2023-05-06T18:14:45;9.27;;;3.40;;
70183;SDS011;57554;51.546;6.776;2023-05-06T18:17:11;11.02;;;3.50;;
70183;SDS011;57554;51.546;6.776;2023-05-06T18:19:40;8.48;;;3.40;;
70183;SDS011;57554;51.546;6.776;2023-05-06T18:22:06;8.90;;;3.88;;
70183;SDS011;57554;51.546;6.776;2023-05-06T18:24:35;15.15;;;4.55;;
70183;SDS011;57554;51.546;6.776;2023-05-06T18:27:03;9.93;;;3.35;;
70183;SDS011;57554;51.546;6.776;2023-05-06T18:29:39;9.32;;;3.30;;
70183;SDS011;57554;51.546;6.776;2023-05-06T18:32:05;7.93;;;3.22;;
70183;SDS011;57554;51.546;6.776;2023-05-06T18:34:33;6.95;;;3.08;;
70183;SDS011;57554;51.546;6.776;2023-05-06T18:36:59;7.78;;;3.28;;
70183;SDS011;57554;51.546;6.776;2023-05-06T18:39:25;11.10;;;4.43;;
70183;SDS011;57554;51.546;6.776;2023-05-06T18:41:51;9.02;;;3.40;;
70183;SDS011;57554;51.546;6.776;2023-05-06T18:44:17;8.40;;;3.95;;
70183;SDS011;57554;51.546;6.776;2023-05-06T18:46:55;8.65;;;3.78;;
70183;SDS011;57554;51.546;6.776;2023-05-06T18:49:21;9.20;;;3.60;;
70183;SDS011;57554;51.546;6.776;2023-05-06T18:51:47;9.93;;;3.58;;
70183;SDS011;57554;51.546;6.776;2023-05-06T18:54:15;9.43;;;3.90;;
70183;SDS011;57554;51.546;6.776;2023-05-06T18:56:41;11.65;;;3.70;;
70183;SDS011;57554;51.546;6.776;2023-05-06T18:59:07;6.40;;;2.72;;
70183;SDS011;57554;51.546;6.776;2023-05-06T19:01:35;8.57;;;2.72;;
70183;SDS011;57554;51.546;6.776;2023-05-06T19:04:01;6.22;;;2.42;;
70183;SDS011;57554;51.546;6.776;2023-05-06T19:06:27;6.30;;;2.20;;
70183;SDS011;57554;51.546;6.776;2023-05-06T19:08:56;7.60;;;3.10;;
70183;SDS011;57554;51.546;6.776;2023-05-06T19:11:25;7.88;;;2.50;;
70183;SDS011;57554;51.546;6.776;2023-05-06T19:13:56;6.75;;;2.58;;
70183;SDS011;57554;51.546;6.776;2023-05-06T19:16:22;5.03;;;2.08;;
70183;SDS011;57554;51.546;6.776;2023-05-06T19:19:01;6.85;;;3.28;;
70183;SDS011;57554;51.546;6.776;2023-05-06T19:21:33;8.23;;;3.20;;
70183;SDS011;57554;51.546;6.776;2023-05-06T19:24:06;6.60;;;3.30;;
70183;SDS011;57554;51.546;6.776;2023-05-06T19:26:43;8.10;;;3.00;;
70183;SDS011;57554;51.546;6.776;2023-05-06T19:29:11;9.15;;;3.40;;
70183;SDS011;57554;51.546;6.776;2023-05-06T19:31:39;7.18;;;3.30;;
70183;SDS011;57554;51.546;6.776;2023-05-06T19:34:09;6.38;;;3.05;;
70183;SDS011;57554;51.546;6.776;2023-05-06T19:36:38;6.45;;;2.90;;
70183;SDS011;57554;51.546;6.776;2023-05-06T19:39:08;6.00;;;3.05;;
70183;SDS011;57554;51.546;6.776;2023-05-06T19:41:34;6.82;;;3.17;;
70183;SDS011;57554;51.546;6.776;2023-05-06T19:44:10;6.63;;;3.10;;
70183;SDS011;57554;51.546;6.776;2023-05-06T19:46:40;9.32;;;3.42;;
70183;SDS011;57554;51.546;6.776;2023-05-06T19:49:09;6.85;;;3.45;;
70183;SDS011;57554;51.546;6.776;2023-05-06T19:51:38;7.70;;;3.08;;
70183;SDS011;57554;51.546;6.776;2023-05-06T19:54:04;7.18;;;3.90;;